createdAt,value
2022-09-20T00:01:42.463Z,2.42
2022-09-20T00:04:11.095Z,2.15
2022-09-20T00:06:40.960Z,1.88
2022-09-20T00:09:09.307Z,1.75
2022-09-20T00:11:38.447Z,3.05
2022-09-20T00:14:09.664Z,1.25
2022-09-20T00:16:41.485Z,3.00
2022-09-20T00:19:10.848Z,1.88
2022-09-20T00:21:40.773Z,1.48
2022-09-20T00:24:09.208Z,2.83
2022-09-20T00:26:38.192Z,1.77
2022-09-20T00:29:06.616Z,2.28
2022-09-20T00:31:35.746Z,1.98
2022-09-20T00:34:21.846Z,2.55
2022-09-20T00:36:51.580Z,2.17
2022-09-20T00:39:19.956Z,1.80
2022-09-20T00:41:48.544Z,2.17
2022-09-20T00:44:42.835Z,2.25
2022-09-20T00:47:17.462Z,1.45
2022-09-20T00:49:46.038Z,2.00
2022-09-20T00:52:17.175Z,1.92
2022-09-20T00:54:45.731Z,1.90
2022-09-20T00:57:14.147Z,1.33
2022-09-20T00:59:47.547Z,1.40
2022-09-20T01:02:19.393Z,6.75
2022-09-20T01:04:50.143Z,3.92
2022-09-20T01:07:23.620Z,2.40
2022-09-20T01:09:52.895Z,3.38
2022-09-20T01:12:24.919Z,2.10
2022-09-20T01:14:55.062Z,2.00
2022-09-20T01:17:26.706Z,2.63
2022-09-20T01:20:09.650Z,2.92
2022-09-20T01:22:49.816Z,1.98
2022-09-20T01:25:21.700Z,1.23
2022-09-20T01:27:53.693Z,3.47
2022-09-20T01:30:25.579Z,2.35
2022-09-20T01:33:04.067Z,1.63
2022-09-20T01:35:35.838Z,2.20
2022-09-20T01:38:17.850Z,2.65
2022-09-20T01:40:55.032Z,2.67
2022-09-20T01:43:33.072Z,2.15
2022-09-20T01:46:12.483Z,2.85
2022-09-20T01:48:43.570Z,1.70
2022-09-20T01:51:50.556Z,1.40
2022-09-20T01:54:48.880Z,2.92
2022-09-20T01:57:58.657Z,1.83
2022-09-20T02:00:31.173Z,2.38
2022-09-20T02:03:38.476Z,2.15
2022-09-20T02:06:20.464Z,1.65
2022-09-20T02:09:21.650Z,1.38
2022-09-20T02:12:10.789Z,2.25
2022-09-20T02:14:50.723Z,2.03
2022-09-20T02:17:29.086Z,2.30
2022-09-20T02:20:17.338Z,1.48
2022-09-20T02:23:13.519Z,1.60
2022-09-20T02:25:54.644Z,2.10
2022-09-20T02:28:40.578Z,1.25
2022-09-20T02:31:18.739Z,2.45
2022-09-20T02:34:29.361Z,2.05
2022-09-20T02:37:16.326Z,2.80
2022-09-20T02:39:57.416Z,2.13
2022-09-20T02:42:36.353Z,3.25
2022-09-20T02:45:11.704Z,2.10
2022-09-20T02:47:41.570Z,2.03
2022-09-20T02:50:24.548Z,2.30
2022-09-20T02:53:04.712Z,1.40
2022-09-20T02:55:42.038Z,1.85
2022-09-20T02:58:33.488Z,3.35
2022-09-20T03:01:11.129Z,1.77
2022-09-20T03:03:51.599Z,1.48
2022-09-20T03:06:31.675Z,2.78
2022-09-20T03:09:07.960Z,1.50
2022-09-20T03:11:45.346Z,1.90
2022-09-20T03:14:23.145Z,1.88
2022-09-20T03:17:11.467Z,1.60
2022-09-20T03:19:57.806Z,2.42
2022-09-20T03:22:39.419Z,1.70
2022-09-20T03:25:40.262Z,1.67
2022-09-20T03:28:24.396Z,2.78
2022-09-20T03:31:05.213Z,1.98
2022-09-20T03:33:47.038Z,2.00
2022-09-20T03:36:35.965Z,1.77
2022-09-20T03:41:58.378Z,1.35
2022-09-20T03:44:55.352Z,2.45
2022-09-20T03:47:42.976Z,2.85
2022-09-20T03:53:41.011Z,2.38
2022-09-20T03:56:36.003Z,1.52
2022-09-20T03:59:15.637Z,3.45
2022-09-20T04:02:11.175Z,2.05
2022-09-20T04:04:49.491Z,2.70
2022-09-20T04:07:24.646Z,2.05
2022-09-20T04:10:20.204Z,2.03
2022-09-20T04:13:04.257Z,3.40
2022-09-20T04:15:43.038Z,1.67
2022-09-20T04:18:23.672Z,1.80
2022-09-20T04:20:58.748Z,1.90
2022-09-20T04:23:37.524Z,2.05
2022-09-20T04:26:06.387Z,1.38
2022-09-20T04:28:42.649Z,2.97
2022-09-20T04:31:25.652Z,2.95
2022-09-20T04:33:58.283Z,2.88
2022-09-20T04:36:37.033Z,1.90
2022-09-20T04:39:18.863Z,2.35
2022-09-20T04:42:23.440Z,2.17
2022-09-20T04:45:37.387Z,2.03
2022-09-20T04:48:52.964Z,2.00
2022-09-20T04:52:00.846Z,2.58
2022-09-20T04:55:02.515Z,2.83
2022-09-20T04:58:04.783Z,4.18
2022-09-20T05:00:52.442Z,2.83
2022-09-20T05:03:52.436Z,2.58
2022-09-20T05:06:38.448Z,2.15
2022-09-20T05:09:33.727Z,1.85
2022-09-20T05:12:53.576Z,2.47
2022-09-20T05:15:36.571Z,2.95
2022-09-20T05:18:35.238Z,4.10
2022-09-20T05:21:16.905Z,2.20
2022-09-20T05:24:01.737Z,2.20
2022-09-20T05:26:42.844Z,2.85
2022-09-20T05:29:19.830Z,2.85
2022-09-20T05:31:54.231Z,2.28
2022-09-20T05:34:32.138Z,2.45
2022-09-20T05:37:12.644Z,2.13
2022-09-20T05:39:48.189Z,2.83
2022-09-20T05:42:21.057Z,2.13
2022-09-20T05:45:03.348Z,2.95
2022-09-20T05:47:41.700Z,2.33
2022-09-20T05:50:31.355Z,2.78
2022-09-20T05:53:11.757Z,3.20
2022-09-20T05:56:01.260Z,2.55
2022-09-20T05:58:50.123Z,3.50
2022-09-20T06:01:24.580Z,3.58
2022-09-20T06:04:01.443Z,3.90
2022-09-20T06:06:38.143Z,2.97
2022-09-20T06:09:34.368Z,7.80
2022-09-20T06:12:29.899Z,2.13
2022-09-20T06:15:04.982Z,2.80
2022-09-20T06:17:39.633Z,2.72
2022-09-20T06:20:19.771Z,3.05
2022-09-20T06:22:51.986Z,2.95
2022-09-20T06:25:26.144Z,4.72
2022-09-20T06:27:57.408Z,2.47
2022-09-20T06:30:30.258Z,2.33
2022-09-20T06:33:00.998Z,2.50
2022-09-20T06:35:41.448Z,3.20
2022-09-20T06:38:49.574Z,2.85
2022-09-20T06:41:29.940Z,2.70
2022-09-20T06:44:00.947Z,4.10
2022-09-20T06:46:31.540Z,2.75
2022-09-20T06:49:00.251Z,2.05
2022-09-20T06:51:30.066Z,3.65
2022-09-20T06:53:58.648Z,3.08
2022-09-20T06:59:17.371Z,2.42
2022-09-20T07:01:45.942Z,4.78
2022-09-20T07:04:14.370Z,1.98
2022-09-20T07:06:42.741Z,2.40
2022-09-20T07:09:29.312Z,3.47
2022-09-20T07:11:59.946Z,5.35
2022-09-20T07:14:28.968Z,2.83
2022-09-20T07:16:57.432Z,2.00
2022-09-20T07:19:25.792Z,2.20
2022-09-20T07:21:54.383Z,3.10
2022-09-20T07:24:22.745Z,2.55
2022-09-20T07:27:00.589Z,1.55
2022-09-20T07:29:30.200Z,3.03
2022-09-20T07:31:58.967Z,2.20
2022-09-20T07:34:27.780Z,1.85
2022-09-20T07:36:59.811Z,2.75
2022-09-20T07:39:28.559Z,2.00
2022-09-20T07:41:58.380Z,3.95
2022-09-20T07:44:27.993Z,2.50
2022-09-20T07:46:59.360Z,3.80
2022-09-20T07:49:30.062Z,1.75
2022-09-20T07:51:59.096Z,2.03
2022-09-20T07:54:28.373Z,1.80
2022-09-20T07:56:58.194Z,2.13
2022-09-20T07:59:26.709Z,4.78
2022-09-20T08:01:55.131Z,3.15
2022-09-20T08:04:23.545Z,2.13
2022-09-20T08:06:51.932Z,2.10
2022-09-20T08:09:20.564Z,4.90
2022-09-20T08:11:49.578Z,3.05
2022-09-20T08:14:20.921Z,2.15
2022-09-20T08:16:50.619Z,2.33
2022-09-20T08:19:21.010Z,3.65
2022-09-20T08:21:50.620Z,5.00
2022-09-20T08:24:19.133Z,2.63
2022-09-20T08:26:48.454Z,4.15
2022-09-20T08:29:16.825Z,3.00
2022-09-20T08:31:47.346Z,1.92
2022-09-20T08:34:18.539Z,2.28
2022-09-20T08:36:50.273Z,2.55
2022-09-20T08:42:16.230Z,1.98
2022-09-20T08:45:00.447Z,1.70
2022-09-20T08:47:34.508Z,2.20
2022-09-20T08:50:17.724Z,2.80
2022-09-20T08:52:48.725Z,2.72
2022-09-20T08:55:19.002Z,2.63
2022-09-20T08:57:50.453Z,3.85
2022-09-20T09:00:21.007Z,2.03
2022-09-20T09:02:53.275Z,3.58
2022-09-20T09:05:32.787Z,2.17
2022-09-20T09:08:04.712Z,2.42
2022-09-20T09:10:42.596Z,2.50
2022-09-20T09:13:23.592Z,1.80
2022-09-20T09:15:57.396Z,1.73
2022-09-20T09:18:35.333Z,2.42
2022-09-20T09:21:05.619Z,3.15
2022-09-20T09:23:42.585Z,1.60
2022-09-20T09:28:48.524Z,2.58
2022-09-20T09:31:26.923Z,2.75
2022-09-20T09:33:56.769Z,1.95
2022-09-20T09:36:26.711Z,2.10
2022-09-20T09:39:17.606Z,2.42
2022-09-20T09:41:46.676Z,2.30
2022-09-20T09:44:24.199Z,3.47
2022-09-20T09:46:54.549Z,3.13
2022-09-20T09:49:25.871Z,2.20
2022-09-20T09:52:08.093Z,1.73
2022-09-20T09:54:39.319Z,3.33
2022-09-20T09:57:32.049Z,4.00
2022-09-20T10:00:16.606Z,3.38
2022-09-20T10:03:21.111Z,2.75
2022-09-20T10:06:08.287Z,2.17
2022-09-20T10:08:45.835Z,3.05
2022-09-20T10:11:30.571Z,1.88
2022-09-20T10:14:11.891Z,2.55
2022-09-20T10:16:59.244Z,2.75
2022-09-20T10:19:38.080Z,1.63
2022-09-20T10:22:19.757Z,3.58
2022-09-20T10:24:57.197Z,2.83
2022-09-20T10:27:39.846Z,1.60
2022-09-20T10:30:14.406Z,3.67
2022-09-20T10:33:01.013Z,2.58
2022-09-20T10:35:38.201Z,2.65
2022-09-20T10:38:19.873Z,3.78
2022-09-20T10:41:35.189Z,1.55
2022-09-20T10:44:11.820Z,1.40
2022-09-20T10:46:54.785Z,1.73
2022-09-20T10:49:34.277Z,3.45
2022-09-20T10:52:31.760Z,2.00
2022-09-20T10:55:20.525Z,2.58
2022-09-20T10:58:06.239Z,1.95
2022-09-20T11:00:46.878Z,2.35
2022-09-20T11:03:28.141Z,1.98
2022-09-20T11:06:09.755Z,3.17
2022-09-20T11:08:41.261Z,2.20
2022-09-20T11:11:17.211Z,2.78
2022-09-20T11:13:56.600Z,3.55
2022-09-20T11:16:30.612Z,4.70
2022-09-20T11:19:02.432Z,2.22
2022-09-20T11:21:36.601Z,1.95
2022-09-20T11:24:12.594Z,3.45
2022-09-20T11:26:47.882Z,5.50
2022-09-20T11:29:26.171Z,4.70
2022-09-20T11:32:01.780Z,3.60
2022-09-20T11:34:33.223Z,2.05
2022-09-20T11:37:03.493Z,2.00
2022-09-20T11:39:40.899Z,2.78
2022-09-20T11:42:15.388Z,2.22
2022-09-20T11:44:44.158Z,2.00
2022-09-20T11:47:36.651Z,2.58
2022-09-20T11:50:48.626Z,2.22
2022-09-20T11:53:28.190Z,2.10
2022-09-20T11:56:02.333Z,2.75
2022-09-20T11:58:33.960Z,1.83
2022-09-20T12:01:02.438Z,5.53
2022-09-20T12:03:36.523Z,2.75
2022-09-20T12:06:07.191Z,2.13
2022-09-20T12:08:40.221Z,3.33
2022-09-20T12:11:12.058Z,3.15
2022-09-20T12:13:44.711Z,3.25
2022-09-20T12:16:17.146Z,3.92
2022-09-20T12:19:03.857Z,3.03
2022-09-20T12:21:32.263Z,3.03
2022-09-20T12:24:19.833Z,5.78
2022-09-20T12:29:51.381Z,3.35
2022-09-20T12:32:46.723Z,2.67
2022-09-20T12:36:00.739Z,3.13
2022-09-20T12:38:33.329Z,4.45
2022-09-20T12:41:04.691Z,2.50
2022-09-20T13:42:30.003Z,2.63
2022-09-20T13:44:59.826Z,3.50
2022-09-20T13:47:31.360Z,2.63
2022-09-20T13:50:03.660Z,6.60
2022-09-20T13:52:33.127Z,2.90
2022-09-20T13:55:01.510Z,3.95
2022-09-20T13:57:33.299Z,3.83
2022-09-20T14:00:02.342Z,4.82
2022-09-20T14:02:40.586Z,3.38
2022-09-20T14:05:18.085Z,3.00
2022-09-20T14:07:48.592Z,1.73
2022-09-20T14:10:37.118Z,4.45
2022-09-20T14:13:09.677Z,2.88
2022-09-20T14:15:42.583Z,3.15
2022-09-20T14:18:16.173Z,2.20
2022-09-20T14:20:45.433Z,2.90
2022-09-20T14:23:24.218Z,2.03
2022-09-20T14:26:09.051Z,4.15
2022-09-20T14:28:38.848Z,2.50
2022-09-20T14:31:12.948Z,3.13
2022-09-20T14:33:45.047Z,2.88
2022-09-20T14:36:16.523Z,3.55
2022-09-20T14:38:46.289Z,2.92
2022-09-20T14:41:15.434Z,3.05
2022-09-20T14:43:45.868Z,2.70
2022-09-20T14:46:17.872Z,3.28
2022-09-20T14:48:46.313Z,3.55
2022-09-20T14:51:25.675Z,5.07
2022-09-20T14:54:15.143Z,3.03
2022-09-20T14:56:51.070Z,2.38
2022-09-20T14:59:26.858Z,1.88
2022-09-20T15:01:59.209Z,2.72
2022-09-20T15:04:29.133Z,1.80
2022-09-20T15:07:01.441Z,5.97
2022-09-20T15:09:30.921Z,3.17
2022-09-20T15:12:04.405Z,4.70
2022-09-20T15:14:37.836Z,4.25
2022-09-20T15:17:07.311Z,2.78
2022-09-20T15:19:35.671Z,5.30
2022-09-20T15:22:04.111Z,3.25
2022-09-20T15:24:32.490Z,5.10
2022-09-20T15:27:00.851Z,2.20
2022-09-20T15:29:29.347Z,7.13
2022-09-20T15:31:59.117Z,3.53
2022-09-20T15:34:27.760Z,2.60
2022-09-20T15:36:56.234Z,4.40
2022-09-20T15:39:24.844Z,3.53
2022-09-20T15:41:53.919Z,4.25
2022-09-20T15:44:22.430Z,4.78
2022-09-20T15:46:52.611Z,3.30
2022-09-20T15:49:22.945Z,3.90
2022-09-20T15:51:52.798Z,5.85
2022-09-20T15:54:21.305Z,4.80
2022-09-20T15:56:53.275Z,6.45
2022-09-20T15:59:23.297Z,4.88
2022-09-20T16:01:51.822Z,4.93
2022-09-20T16:04:22.515Z,5.68
2022-09-20T16:06:51.630Z,6.07
2022-09-20T16:09:21.285Z,3.33
2022-09-20T16:11:50.166Z,5.20
2022-09-20T16:14:18.587Z,8.02
2022-09-20T16:16:47.003Z,3.60
2022-09-20T16:19:17.607Z,3.55
2022-09-20T16:21:53.615Z,4.45
2022-09-20T16:24:26.188Z,3.28
2022-09-20T16:26:54.818Z,4.32
2022-09-20T16:29:25.198Z,5.57
2022-09-20T16:31:55.041Z,3.92
2022-09-20T16:34:28.528Z,4.22
2022-09-20T16:37:00.099Z,3.47
2022-09-20T16:39:29.525Z,3.65
2022-09-20T16:42:01.107Z,2.42
2022-09-20T16:44:29.428Z,6.22
2022-09-20T16:46:57.806Z,6.47
2022-09-20T16:49:28.850Z,5.82
2022-09-20T16:51:58.656Z,4.25
2022-09-20T16:54:31.592Z,4.80
2022-09-20T16:57:00.511Z,3.65
2022-09-20T16:59:28.965Z,10.02
2022-09-20T17:01:57.437Z,4.43
2022-09-20T17:04:25.838Z,4.80
2022-09-20T17:06:54.342Z,8.05
2022-09-20T17:09:24.191Z,3.83
2022-09-20T17:11:52.833Z,5.55
2022-09-20T17:14:22.071Z,7.13
2022-09-20T17:16:50.625Z,8.02
2022-09-20T17:19:20.496Z,5.97
2022-09-20T17:21:51.099Z,6.30
2022-09-20T17:24:21.593Z,5.88
2022-09-20T17:26:52.072Z,4.40
2022-09-20T17:29:21.577Z,6.53
2022-09-20T17:31:55.088Z,6.70
2022-09-20T17:34:25.568Z,8.43
2022-09-20T17:36:55.578Z,5.50
2022-09-20T17:39:24.496Z,7.10
2022-09-20T17:41:54.401Z,5.05
2022-09-20T17:44:22.867Z,4.40
2022-09-20T17:46:54.061Z,4.43
2022-09-20T17:49:24.350Z,4.80
2022-09-20T17:51:54.500Z,5.22
2022-09-20T17:54:24.604Z,6.25
2022-09-20T17:56:56.246Z,6.05
2022-09-20T17:59:25.811Z,5.60
2022-09-20T18:01:55.332Z,4.95
2022-09-20T18:04:24.634Z,5.78
2022-09-20T18:06:54.744Z,10.40
2022-09-20T18:09:25.412Z,5.22
2022-09-20T18:11:56.581Z,8.88
2022-09-20T18:14:27.605Z,6.35
2022-09-20T18:16:58.245Z,5.55
2022-09-20T18:19:32.784Z,5.68
2022-09-20T18:22:02.479Z,7.20
2022-09-20T18:24:31.600Z,6.80
2022-09-20T18:27:01.810Z,7.95
2022-09-20T18:29:36.741Z,6.68
2022-09-20T18:32:05.559Z,5.80
2022-09-20T18:34:34.305Z,6.78
2022-09-20T18:37:03.945Z,6.25
2022-09-20T18:39:35.031Z,5.13
2022-09-20T18:42:07.881Z,9.15
2022-09-20T18:44:36.457Z,5.20
2022-09-20T18:47:06.023Z,5.68
2022-09-20T18:49:34.500Z,5.97
2022-09-20T18:52:04.062Z,5.97
2022-09-20T18:54:33.741Z,6.97
2022-09-20T18:57:02.773Z,6.07
2022-09-20T18:59:32.955Z,4.93
2022-09-20T19:02:13.919Z,9.15
2022-09-20T19:05:17.770Z,13.07
2022-09-20T19:08:00.059Z,9.65
2022-09-20T19:10:40.364Z,12.15
2022-09-20T19:13:27.151Z,11.50
2022-09-20T19:16:16.910Z,8.63
2022-09-20T19:19:13.477Z,7.28
2022-09-20T19:21:47.788Z,8.75
2022-09-20T19:24:31.338Z,12.45
2022-09-20T19:26:59.917Z,12.07
2022-09-20T19:29:29.895Z,6.93
2022-09-20T19:32:01.026Z,7.90
2022-09-20T19:34:30.821Z,6.53
2022-09-20T19:37:09.059Z,5.88
2022-09-20T19:39:55.520Z,4.75
2022-09-20T19:42:37.217Z,5.80
2022-09-20T19:45:16.740Z,6.20
2022-09-20T19:47:55.856Z,7.00
2022-09-20T19:50:33.419Z,5.07
2022-09-20T19:53:04.113Z,8.90
2022-09-20T19:55:33.666Z,6.50
2022-09-20T19:58:03.010Z,4.63
2022-09-20T20:00:32.294Z,7.78
2022-09-20T20:03:02.889Z,6.35
2022-09-20T20:05:32.231Z,8.15
2022-09-20T20:08:15.734Z,8.93
2022-09-20T20:10:55.541Z,7.55
2022-09-20T20:13:52.016Z,7.60
2022-09-20T20:16:28.805Z,5.18
2022-09-20T20:19:12.511Z,6.40
2022-09-20T20:21:51.359Z,6.95
2022-09-20T20:24:29.918Z,8.68
2022-09-20T20:26:58.291Z,9.88
2022-09-20T20:29:26.683Z,7.60
2022-09-20T20:31:55.122Z,10.45
2022-09-20T20:34:26.642Z,11.15
2022-09-20T20:37:00.978Z,13.63
2022-09-20T20:39:31.719Z,12.07
2022-09-20T20:42:02.434Z,11.07
2022-09-20T20:44:31.860Z,12.82
2022-09-20T20:47:00.244Z,14.93
2022-09-20T20:49:30.072Z,16.73
2022-09-20T20:51:59.720Z,13.18
2022-09-20T20:54:28.065Z,12.93
2022-09-20T20:56:56.410Z,10.10
2022-09-20T20:59:24.803Z,14.77
2022-09-20T21:01:53.261Z,18.55
2022-09-20T21:04:21.800Z,15.82
2022-09-20T21:06:51.670Z,15.43
2022-09-20T21:09:20.038Z,12.52
2022-09-20T21:11:48.614Z,14.98
2022-09-20T21:14:17.190Z,17.40
2022-09-20T21:16:45.676Z,17.02
2022-09-20T21:19:16.602Z,14.43
2022-09-20T21:21:47.377Z,18.25
2022-09-20T21:24:18.117Z,21.50
2022-09-20T21:26:47.677Z,20.75
2022-09-20T21:29:17.581Z,20.73
2022-09-20T21:31:47.443Z,13.65
2022-09-20T21:34:16.994Z,18.35
2022-09-20T21:36:45.779Z,19.10
2022-09-20T21:39:14.581Z,16.83
2022-09-20T21:41:44.788Z,22.25
2022-09-20T21:44:15.087Z,22.77
2022-09-20T21:46:43.551Z,19.20
2022-09-20T21:49:14.342Z,27.85
2022-09-20T21:51:44.137Z,23.33
2022-09-20T21:54:12.591Z,32.58
2022-09-20T21:56:41.837Z,31.88
2022-09-20T21:59:11.692Z,35.08
2022-09-20T22:01:41.331Z,31.20
2022-09-20T22:04:11.641Z,31.88
2022-09-20T22:06:41.770Z,29.25
2022-09-20T22:09:12.436Z,27.95
2022-09-20T22:11:42.331Z,27.42
2022-09-20T22:14:14.213Z,24.20
2022-09-20T22:16:44.066Z,19.02
2022-09-20T22:19:14.931Z,12.10
2022-09-20T22:21:44.784Z,15.02
2022-09-20T22:24:14.863Z,15.80
2022-09-20T22:26:44.990Z,20.00
2022-09-20T22:29:15.038Z,17.88
2022-09-20T22:31:46.228Z,16.65
2022-09-20T22:34:16.935Z,18.35
2022-09-20T22:36:45.847Z,13.40
2022-09-20T22:39:14.805Z,11.85
2022-09-20T22:41:44.603Z,11.60
2022-09-20T22:44:14.396Z,13.40
2022-09-20T22:46:42.939Z,13.23
2022-09-20T22:49:11.250Z,11.98
2022-09-20T22:51:40.400Z,12.10
2022-09-20T22:54:10.759Z,12.25
2022-09-20T22:56:41.426Z,9.77
2022-09-20T22:59:11.721Z,10.93
2022-09-20T23:01:43.525Z,13.05
2022-09-20T23:04:13.674Z,12.10
2022-09-20T23:06:43.953Z,9.65
2022-09-20T23:09:14.076Z,9.20
2022-09-20T23:11:43.422Z,13.27
2022-09-20T23:14:13.495Z,15.52
2022-09-20T23:16:43.773Z,10.95
2022-09-20T23:19:13.107Z,9.98
2022-09-20T23:21:43.124Z,9.77
2022-09-20T23:24:13.177Z,10.65
2022-09-20T23:26:42.983Z,11.23
2022-09-20T23:29:12.862Z,13.63
2022-09-20T23:31:46.154Z,10.88
2022-09-20T23:34:16.236Z,11.95
2022-09-20T23:36:45.427Z,10.13
2022-09-20T23:39:14.446Z,9.88
2022-09-20T23:41:46.941Z,12.48
2022-09-20T23:44:18.480Z,15.77
2022-09-20T23:46:48.219Z,14.85
2022-09-20T23:49:16.633Z,11.88
2022-09-20T23:51:45.115Z,13.05
2022-09-20T23:54:13.448Z,12.95
2022-09-20T23:56:42.923Z,10.38
2022-09-20T23:59:11.312Z,9.25
